ADDS METAR Data INFO
IDs: Format: Raw Decoded Include TAF

Data at: 1334 UTC 19 Jul 2018

KSUT 191320Z AUTO 07009KT 10SM SCT120 27/21 A3003 RMK AO2 T02730207
KSUT 191300Z AUTO 06006KT 10SM CLR 27/21 A3002 RMK AO2 T02700212
KSUT 191240Z AUTO 07004KT 10SM CLR 27/22 A3002 RMK AO2 T02650220
KSUT 191220Z AUTO 05004KT 10SM CLR 26/22 A3001 RMK AO2 T02630223
KSUT 191200Z AUTO 06004KT 10SM SCT120 25/23 A3000 RMK AO2 T02520230
KSUT 191140Z AUTO 00000KT 10SM BKN120 25/23 A2999 RMK AO2 T02450231
KSUT 191120Z AUTO 00000KT 10SM SCT060 OVC120 24/24 A2998 RMK AO2 T02410236
KSUT 191100Z AUTO 00000KT 7SM BKN060 OVC120 24/23 A2998 RMK AO2 T02350233
KSUT 191040Z AUTO 00000KT 7SM BKN120 24/23 A2998 RMK AO2 T02350232
KSUT 191020Z AUTO 00000KT 7SM CLR 24/23 A2997 RMK AO2 T02350232
KSUT 191000Z AUTO 04003KT 7SM SCT120 24/23 A2996 RMK AO2 T02350232
KSUT 190940Z AUTO 03003KT 10SM SCT120 24/23 A2997 RMK AO2 T02350232
KSUT 190920Z AUTO 03003KT 10SM CLR 24/23 A2997 RMK AO2 T02350232
KSUT 190900Z AUTO 00000KT 10SM CLR 24/23 A2996 RMK AO2 T02350232
KSUT 190840Z AUTO 00000KT 7SM CLR 24/23 A2995 RMK AO2 T02350234
KSUT 190820Z AUTO 00000KT 7SM CLR 24/24 A2995 RMK AO2 T02370235
KSUT 190800Z AUTO 00000KT 7SM CLR 24/24 A2994 RMK AO2 T02360235
KSUT 190740Z AUTO 03003KT 7SM SCT120 24/24 A2995 RMK AO2 T02370235
KSUT 190730Z AUTO 02004KT 7SM BKN120 24/24 A2995 RMK AO2 T02370235
KSUT 190720Z AUTO 02004KT 7SM OVC120 24/24 A2995 RMK AO2 T02380236
KSUT 190700Z AUTO 02004KT 7SM OVC120 24/24 A2995 RMK AO2 T02400237
KSUT 190640Z AUTO 02003KT 7SM SCT120 24/24 A2995 RMK AO2 T02380237
KSUT 190620Z AUTO 00000KT 7SM CLR 24/24 A2995 RMK AO2 T02370236
KSUT 190600Z AUTO 02003KT 7SM CLR 24/24 A2995 RMK AO2 T02380237
KSUT 190540Z AUTO 00000KT 7SM CLR 24/24 A2996 RMK AO2 T02380236
KSUT 190520Z AUTO 00000KT 7SM CLR 24/24 A2996 RMK AO2 T02370236
KSUT 190500Z AUTO 00000KT 7SM CLR 24/24 A2996 RMK AO2 T02370235
KSUT 190440Z AUTO 00000KT 7SM CLR 24/24 A2996 RMK AO2 T02380236
KSUT 190420Z AUTO 00000KT 10SM CLR 24/24 A2996 RMK AO2 T02400238
KSUT 190400Z AUTO 00000KT 7SM CLR 24/24 A2995 RMK AO2 T02380236
KSUT 190340Z AUTO 00000KT 7SM BKN120 24/24 A2996 RMK AO2 T02420240
KSUT 190320Z AUTO 00000KT 10SM OVC120 24/24 A2996 RMK AO2 T02430241
KSUT 190300Z AUTO 00000KT 7SM BKN120 25/24 A2995 RMK AO2 T02450242
KSUT 190240Z AUTO 00000KT 7SM SCT120 24/24 A2996 RMK AO2 P0001 T02400238
KSUT 190220Z AUTO 00000KT 7SM CLR 25/24 A2995 RMK AO2 T02450242
KSUT 190200Z AUTO 00000KT 7SM CLR 25/24 A2995 RMK AO2 T02450243
KSUT 190140Z AUTO 00000KT 5SM BR CLR 25/24 A2994 RMK AO2 T02450243
KSUT 190120Z AUTO 00000KT 5SM BR CLR 25/24 A2993 RMK AO2 T02450243
KSUT 190100Z AUTO 00000KT 7SM CLR 25/24 A2993 RMK AO2 T02450243
KSUT 190040Z AUTO 00000KT 5SM BR CLR 25/24 A2992 RMK AO2 T02450243
KSUT 190020Z AUTO 00000KT 4SM BR CLR 25/24 A2992 RMK AO2 T02450243
KSUT 190000Z AUTO 00000KT 4SM BR CLR 25/24 A2992 RMK AO2 T02450242
KSUT 182340Z AUTO 00000KT 4SM BR SCT120 25/24 A2992 RMK AO2 T02460244
KSUT 182320Z AUTO 00000KT 4SM BR SCT070 BKN120 25/24 A2991 RMK AO2 T02460244
KSUT 182300Z AUTO 00000KT 4SM BR SCT013 BKN070 OVC110 25/24 A2992 RMK AO2 T02450242
KSUT 182240Z AUTO 00000KT 1 3/4SM RA BKN010 BKN022 OVC039 24/23 A2992 RMK AO2 P0052 T02370234
KSUT 182220Z AUTO 17004KT 3/4SM +RA BKN005 OVC010 24/24 A2992 RMK AO2 P0045 T02380235
KSUT 182200Z AUTO 11004KT 1/2SM +RA BKN007 OVC012 24/23 A2992 RMK AO2 P0005 T02440233
KSUT 182140Z AUTO 08005KT 10SM SCT009 OVC014 26/24 A2991 RMK AO2 T02580237
KSUT 182120Z AUTO 13003KT 10SM BKN014 BKN023 OVC039 27/25 A2991 RMK AO2 T02730245
KSUT 182100Z AUTO 17004KT 10SM SCT018 BKN037 OVC049 28/25 A2990 RMK AO2 T02750245
KSUT 182040Z AUTO 18004KT 10SM BKN018 BKN027 BKN032 28/25 A2990 RMK AO2 T02830249
KSUT 182020Z AUTO 14004KT 10SM BKN027 OVC034 28/25 A2989 RMK AO2 T02800248
KSUT 182000Z AUTO 13003KT 10SM SCT027 BKN040 BKN049 28/25 A2990 RMK AO2 T02840246
KSUT 181940Z AUTO 00000KT 10SM SCT027 SCT040 BKN047 29/24 A2991 RMK AO2 T02940236
KSUT 181920Z AUTO 00000KT 10SM SCT039 BKN045 BKN065 29/24 A2991 RMK AO2 T02890237
KSUT 181900Z AUTO 03004KT 10SM BKN042 29/24 A2992 RMK AO2 T02910240
KSUT 181840Z AUTO 36006KT 10SM SCT024 SCT028 BKN036 30/24 A2991 RMK AO2 T02960238
KSUT 181820Z AUTO 32004KT 10SM SCT022 BKN032 OVC044 29/23 A2992 RMK AO2 T02920233
KSUT 181800Z AUTO 00000KT 10SM BKN020 BKN030 BKN060 29/24 A2992 RMK AO2 T02850237
KSUT 181740Z AUTO 28004KT 10SM SCT019 SCT025 SCT043 28/24 A2992 RMK AO2 T02840236
KSUT 181720Z AUTO 31005KT 10SM BKN021 BKN027 28/24 A2993 RMK AO2 T02820239
KSUT 181700Z AUTO 35006KT 10SM OVC021 28/24 A2993 RMK AO2 T02780236
KSUT 181640Z AUTO 00000KT 10SM BKN019 27/23 A2993 RMK AO2 T02720234
KSUT 181620Z AUTO 26003KT 10SM BKN015 27/23 A2994 RMK AO2 T02720234
KSUT 181600Z AUTO 30003KT 10SM OVC017 27/24 A2995 RMK AO2 T02700237
KSUT 181540Z AUTO 00000KT 10SM OVC013 27/24 A2995 RMK AO2 T02680236
KSUT 181520Z AUTO 30004KT 10SM OVC013 26/24 A2996 RMK AO2 T02630237
KSUT 181500Z AUTO 31005KT 10SM OVC011 26/24 A2996 RMK AO2 T02630236
KSUT 181440Z AUTO 32006KT 10SM BKN011 27/24 A2995 RMK AO2 T02660238
KSUT 181420Z AUTO 34004KT 10SM SCT008 26/24 A2994 RMK AO2 T02620240
KSUT 181400Z AUTO 29005KT 10SM BKN008 25/24 A2993 RMK AO2 T02530237
KSUT 181340Z AUTO 30005KT 10SM OVC008 25/24 A2993 RMK AO2 T02500238
KSUT 181320Z AUTO 32006KT 10SM OVC006 25/24 A2992 RMK AO2 T02480238
KSUT 181300Z AUTO 28005KT 10SM SCT006 25/24 A2993 RMK AO2 T02500241
KSUT 181240Z AUTO 27003KT 7SM CLR 25/24 A2992 RMK AO2 T02490238
KSUT 181220Z AUTO 26007KT 7SM SCT050 SCT055 SCT070 25/24 A2992 RMK AO2 T02450238
KSUT 181200Z AUTO 35003KT 5SM BR SCT040 BKN050 BKN070 25/24 A2992 RMK AO2 T02450236
KSUT 181140Z AUTO 26006KT 7SM BKN040 BKN048 BKN060 24/23 A2993 RMK AO2 T02410232
KSUT 181120Z AUTO 00000KT 10SM SCT045 SCT060 BKN070 25/24 A2991 RMK AO2 T02450240
KSUT 181100Z AUTO 28006KT 7SM SCT047 SCT055 SCT075 25/24 A2991 RMK AO2 T02450241
KSUT 181040Z AUTO 00000KT 7SM SCT055 SCT095 24/24 A2990 RMK AO2 P0001 T02410239
KSUT 181020Z AUTO 29003KT 7SM SCT037 SCT046 SCT090 24/24 A2990 RMK AO2 T02380236
KSUT 181000Z AUTO 00000KT 10SM SCT023 BKN037 OVC085 24/24 A2990 RMK AO2 T02410236
KSUT 180940Z AUTO 31004KT 10SM SCT014 BKN023 OVC037 24/24 A2990 RMK AO2 T02430238
KSUT 180920Z AUTO 29005KT 10SM SCT005 BKN013 BKN021 24/24 A2990 RMK AO2 T02380235
KSUT 180900Z AUTO 00000KT 1/2SM +RA OVC005 23/23 A2988 RMK AO2 T02280225
KSUT 180840Z AUTO 25015G19KT 1 1/2SM +RA OVC014 24/23 A2990 RMK AO2 P0031 T02360230
KSUT 180820Z AUTO 26017G22KT 5SM +RA SCT009 BKN015 OVC023 26/24 A2990 RMK AO2 P0004 T02560242
KSUT 180800Z AUTO 25009G19KT 10SM BKN017 BKN023 OVC038 26/25 A2990 RMK AO2 T02630248
KSUT 180740Z AUTO 23007KT 10SM SCT017 BKN024 OVC050 26/25 A2990 RMK AO2 P0004 T02630248
KSUT 180720Z AUTO 24007KT 10SM SCT009 BKN021 OVC043 26/24 A2991 RMK AO2 P0004 T02550240
KSUT 180700Z AUTO 21006G23KT 1 1/4SM +RA BKN009 BKN023 OVC070 25/24 A2991 RMK AO2 P0002 T02460236
KSUT 180640Z AUTO 26013G21KT 10SM SCT024 BKN043 BKN065 27/23 A2992 RMK AO2 T02670228
KSUT 180620Z AUTO 24014G20KT 10SM SCT040 BKN046 OVC095 27/23 A2992 RMK AO2 T02720232
KSUT 180600Z AUTO 24012G19KT 10SM SCT022 BKN060 OVC085 27/24 A2993 RMK AO2 T02730238
KSUT 180540Z AUTO 23013G19KT 10SM BKN050 BKN065 BKN075 27/24 A2993 RMK AO2 T02730236
KSUT 180520Z AUTO 24014G17KT 10SM SCT021 SCT028 SCT060 27/24 A2993 RMK AO2 T02730236
KSUT 180500Z AUTO 23011G16KT 10SM SCT016 BKN023 BKN027 27/25 A2993 RMK AO2 T02730245
KSUT 180440Z AUTO 22009G15KT 170V240 10SM SCT016 SCT021 SCT026 27/25 A2993 RMK AO2 T02700250
KSUT 180420Z AUTO 22007KT 180V250 10SM CLR 27/24 A2993 RMK AO2 T02680241
KSUT 180400Z AUTO 23006KT 10SM CLR 27/23 A2993 RMK AO2 T02670233
KSUT 180340Z AUTO 23009KT 10SM CLR 27/24 A2994 RMK AO2 T02650236
KSUT 180320Z AUTO 24010KT 10SM CLR 26/23 A2994 RMK AO2 T02630234
KSUT 180300Z AUTO 24007KT 10SM CLR 26/23 A2994 RMK AO2 T02630232
KSUT 180240Z AUTO 25007KT 10SM CLR 26/24 A2995 RMK AO2 T02630235
KSUT 180220Z AUTO 25008KT 10SM CLR 27/24 A2995 RMK AO2 T02660235
KSUT 180200Z AUTO 24009KT 10SM CLR 27/23 A2995 RMK AO2 T02650231
KSUT 180140Z AUTO 25008G16KT 10SM CLR 26/23 A2994 RMK AO2 T02640229